CFG2FM EDDH-EDDF
Flight info
| Callsign | CFG2FM |
|---|---|
| Flight time | N/A |
| Altitude | 33000 |
| Route | AMLUH2G AMLUH M852 DENIX DCT OBATU DCT RIMET/N0399F270 T157 KERAX KERAX5D |
| Aircraft | A321/M-SDE3FGHIRWY/LB1 |
Departure
| Time | 2026-04-22 09:32 |
|---|---|
| Airport | Hamburg Helmut Schmidt Airport (EDDH) |
Arrival
| Time | N/A |
|---|---|
| Airport | Frankfurt Main Airport (EDDF) |
| Time | Latitude | Longitude | Altitude | Speed | Heading |
|---|---|---|---|---|---|
| 2026-04-22 08:58 | 53.62805 | 10.00239 | 62 ft | 0 kts | 62° |
| 2026-04-22 09:23 | 53.62805 | 10.00238 | 62 ft | 1 kts | 62° |
| 2026-04-22 09:23 | 53.62798 | 10.00217 | 62 ft | 2 kts | 62° |
| 2026-04-22 09:23 | 53.62791 | 10.00194 | 62 ft | 2 kts | 62° |
| 2026-04-22 09:23 | 53.62783 | 10.00173 | 62 ft | 2 kts | 40° |
| 2026-04-22 09:24 | 53.62770 | 10.00160 | 62 ft | 2 kts | 20° |
| 2026-04-22 09:24 | 53.62755 | 10.00155 | 62 ft | 2 kts | 358° |
| 2026-04-22 09:24 | 53.62741 | 10.00160 | 62 ft | 2 kts | 336° |
| 2026-04-22 09:24 | 53.62729 | 10.00171 | 62 ft | 0 kts | 330° |
| 2026-04-22 09:25 | 53.62727 | 10.00173 | 62 ft | 0 kts | 332° |
| 2026-04-22 09:28 | 53.62732 | 10.00169 | 62 ft | 1 kts | 332° |
| 2026-04-22 09:29 | 53.62748 | 10.00153 | 62 ft | 1 kts | 332° |
| 2026-04-22 09:29 | 53.62784 | 10.00121 | 62 ft | 9 kts | 332° |
| 2026-04-22 09:29 | 53.62864 | 10.00054 | 62 ft | 14 kts | 341° |
| 2026-04-22 09:29 | 53.62957 | 10.00102 | 62 ft | 14 kts | 31° |
| 2026-04-22 09:30 | 53.63045 | 10.00197 | 62 ft | 15 kts | 32° |
| 2026-04-22 09:30 | 53.63149 | 10.00221 | 62 ft | 15 kts | 356° |
| 2026-04-22 09:30 | 53.63261 | 10.00207 | 62 ft | 16 kts | 355° |
| 2026-04-22 09:30 | 53.63375 | 10.00193 | 62 ft | 16 kts | 355° |
| 2026-04-22 09:31 | 53.63485 | 10.00173 | 62 ft | 13 kts | 342° |
| 2026-04-22 09:31 | 53.63562 | 10.00081 | 62 ft | 13 kts | 320° |
| 2026-04-22 09:31 | 53.63602 | 9.99983 | 62 ft | 9 kts | 265° |
| 2026-04-22 09:31 | 53.63565 | 9.99896 | 62 ft | 9 kts | 227° |
| 2026-04-22 09:32 | 53.63520 | 9.99806 | 62 ft | 12 kts | 231° |
| 2026-04-22 09:32 | 53.63313 | 9.99382 | 62 ft | 90 kts | 230° |
| 2026-04-22 09:32 | 53.62738 | 9.98222 | 67 ft | 163 kts | 229° |
| 2026-04-22 09:32 | 53.62014 | 9.96841 | 953 ft | 156 kts | 231° |
| 2026-04-22 09:33 | 53.61305 | 9.95443 | 1703 ft | 164 kts | 233° |
| 2026-04-22 09:33 | 53.60622 | 9.93964 | 2327 ft | 160 kts | 237° |
| 2026-04-22 09:33 | 53.60007 | 9.92424 | 2856 ft | 160 kts | 241° |
| 2026-04-22 09:33 | 53.59449 | 9.90786 | 3377 ft | 161 kts | 245° |
| 2026-04-22 09:34 | 53.58893 | 9.89170 | 3810 ft | 169 kts | 230° |
| 2026-04-22 09:34 | 53.58006 | 9.87717 | 4156 ft | 184 kts | 224° |
| 2026-04-22 09:34 | 53.56977 | 9.86316 | 4491 ft | 201 kts | 206° |
| 2026-04-22 09:35 | 53.54309 | 9.87486 | 5188 ft | 224 kts | 137° |
| 2026-04-22 09:35 | 53.53073 | 9.89119 | 5746 ft | 231 kts | 140° |
| 2026-04-22 09:35 | 53.51864 | 9.90858 | 6313 ft | 234 kts | 123° |
| 2026-04-22 09:35 | 53.51345 | 9.93375 | 6955 ft | 227 kts | 88° |
| 2026-04-22 09:36 | 53.51366 | 9.95948 | 7768 ft | 222 kts | 86° |
| 2026-04-22 09:36 | 53.51372 | 9.98541 | 8448 ft | 225 kts | 86° |
| 2026-04-22 09:36 | 53.51358 | 10.01167 | 9100 ft | 227 kts | 87° |
| 2026-04-22 09:36 | 53.51268 | 10.03780 | 9741 ft | 232 kts | 96° |
| 2026-04-22 09:37 | 53.50777 | 10.06379 | 10393 ft | 238 kts | 110° |
| 2026-04-22 09:37 | 53.50046 | 10.08865 | 11029 ft | 240 kts | 112° |
| 2026-04-22 09:37 | 53.49271 | 10.11373 | 11653 ft | 243 kts | 112° |
| 2026-04-22 09:37 | 53.48493 | 10.13884 | 12249 ft | 246 kts | 112° |
| 2026-04-22 09:38 | 53.47702 | 10.16470 | 12589 ft | 260 kts | 111° |
| 2026-04-22 09:38 | 53.46857 | 10.19252 | 12893 ft | 276 kts | 112° |
| 2026-04-22 09:38 | 53.45956 | 10.22214 | 13199 ft | 292 kts | 112° |
| 2026-04-22 09:38 | 53.45015 | 10.25307 | 13493 ft | 307 kts | 112° |
| 2026-04-22 09:39 | 53.44017 | 10.28561 | 13779 ft | 323 kts | 114° |
| 2026-04-22 09:39 | 53.42588 | 10.31602 | 14063 ft | 346 kts | 136° |
| 2026-04-22 09:39 | 53.40433 | 10.33504 | 14640 ft | 358 kts | 159° |
| 2026-04-22 09:39 | 53.38031 | 10.34567 | 15304 ft | 360 kts | 162° |
| 2026-04-22 09:40 | 53.35605 | 10.35591 | 15869 ft | 364 kts | 162° |
| 2026-04-22 09:40 | 53.33149 | 10.36645 | 16440 ft | 367 kts | 161° |
| 2026-04-22 09:40 | 53.30705 | 10.37715 | 17016 ft | 370 kts | 161° |
| 2026-04-22 09:40 | 53.28200 | 10.38826 | 17569 ft | 373 kts | 160° |
| 2026-04-22 09:41 | 53.25710 | 10.39937 | 18112 ft | 376 kts | 160° |
| 2026-04-22 09:41 | 53.23194 | 10.41062 | 18640 ft | 379 kts | 160° |
| 2026-04-22 09:41 | 53.20652 | 10.42199 | 19162 ft | 382 kts | 160° |
| 2026-04-22 09:41 | 53.18058 | 10.43357 | 19692 ft | 385 kts | 160° |
| 2026-04-22 09:42 | 53.15476 | 10.44497 | 20218 ft | 388 kts | 161° |
| 2026-04-22 09:42 | 53.12799 | 10.45277 | 20709 ft | 394 kts | 169° |
| 2026-04-22 09:42 | 53.10076 | 10.45454 | 21208 ft | 400 kts | 177° |
| 2026-04-22 09:42 | 53.07266 | 10.45226 | 21717 ft | 404 kts | 180° |
| 2026-04-22 09:43 | 53.04454 | 10.44917 | 22200 ft | 407 kts | 180° |
| 2026-04-22 09:43 | 53.01631 | 10.44601 | 22670 ft | 410 kts | 180° |
| 2026-04-22 09:43 | 52.98798 | 10.44294 | 23164 ft | 412 kts | 180° |
| 2026-04-22 09:43 | 52.95941 | 10.43997 | 23638 ft | 414 kts | 179° |
| 2026-04-22 09:44 | 52.93091 | 10.43709 | 24082 ft | 417 kts | 179° |
| 2026-04-22 09:44 | 52.90202 | 10.43422 | 24514 ft | 420 kts | 179° |
| 2026-04-22 09:44 | 52.87269 | 10.43132 | 24946 ft | 422 kts | 179° |
| 2026-04-22 09:44 | 52.84322 | 10.42842 | 25385 ft | 424 kts | 179° |
| 2026-04-22 09:45 | 52.81482 | 10.42565 | 25787 ft | 426 kts | 179° |
| 2026-04-22 09:45 | 52.78460 | 10.42270 | 26199 ft | 428 kts | 179° |
| 2026-04-22 09:45 | 52.75485 | 10.41979 | 26582 ft | 431 kts | 179° |
| 2026-04-22 09:45 | 52.72489 | 10.41687 | 26953 ft | 433 kts | 179° |
| 2026-04-22 09:46 | 52.69523 | 10.41383 | 27313 ft | 436 kts | 180° |
| 2026-04-22 09:46 | 52.66462 | 10.40959 | 27672 ft | 439 kts | 181° |
| 2026-04-22 09:46 | 52.63429 | 10.40501 | 28016 ft | 441 kts | 181° |
| 2026-04-22 09:46 | 52.60376 | 10.40035 | 28361 ft | 443 kts | 181° |
| 2026-04-22 09:47 | 52.57333 | 10.39575 | 28702 ft | 445 kts | 181° |
| 2026-04-22 09:47 | 52.54249 | 10.39115 | 29045 ft | 446 kts | 181° |
| 2026-04-22 09:47 | 52.51152 | 10.38658 | 29374 ft | 448 kts | 181° |
| 2026-04-22 09:47 | 52.48052 | 10.38204 | 29699 ft | 450 kts | 181° |
| 2026-04-22 09:48 | 52.44924 | 10.37747 | 30025 ft | 451 kts | 181° |
| 2026-04-22 09:48 | 52.41800 | 10.37292 | 30443 ft | 450 kts | 181° |
| 2026-04-22 09:48 | 52.38692 | 10.36838 | 30886 ft | 448 kts | 181° |
| 2026-04-22 09:48 | 52.35613 | 10.36391 | 31296 ft | 447 kts | 181° |
| 2026-04-22 09:49 | 52.32500 | 10.35941 | 31648 ft | 446 kts | 181° |
| 2026-04-22 09:49 | 52.29426 | 10.35496 | 31948 ft | 446 kts | 181° |
| 2026-04-22 09:49 | 52.26366 | 10.35056 | 32218 ft | 447 kts | 181° |
| 2026-04-22 09:49 | 52.23231 | 10.34606 | 32494 ft | 448 kts | 181° |
| 2026-04-22 09:50 | 52.20156 | 10.34165 | 32760 ft | 449 kts | 181° |
| 2026-04-22 09:50 | 52.17056 | 10.33719 | 33022 ft | 449 kts | 181° |
| 2026-04-22 09:50 | 52.13945 | 10.33272 | 33263 ft | 450 kts | 181° |
| 2026-04-22 09:50 | 52.10832 | 10.32825 | 33350 ft | 452 kts | 181° |
| 2026-04-22 09:51 | 52.04571 | 10.31928 | 33357 ft | 451 kts | 181° |
| 2026-04-22 09:51 | 51.98326 | 10.31037 | 33358 ft | 451 kts | 181° |
| 2026-04-22 09:52 | 51.92070 | 10.30149 | 33347 ft | 452 kts | 181° |
| 2026-04-22 09:52 | 51.85855 | 10.29267 | 33346 ft | 451 kts | 181° |
| 2026-04-22 09:53 | 51.79532 | 10.28373 | 33338 ft | 451 kts | 182° |
| 2026-04-22 09:53 | 51.73295 | 10.27493 | 33335 ft | 451 kts | 182° |
| 2026-04-22 09:54 | 51.67085 | 10.26619 | 33337 ft | 451 kts | 182° |
| 2026-04-22 09:54 | 51.60833 | 10.25744 | 33340 ft | 451 kts | 182° |
| 2026-04-22 09:55 | 51.54595 | 10.24871 | 33341 ft | 451 kts | 182° |
| 2026-04-22 09:55 | 51.48352 | 10.24001 | 32786 ft | 455 kts | 182° |
| 2026-04-22 09:56 | 51.45190 | 10.23562 | 31899 ft | 462 kts | 182° |
| 2026-04-22 09:56 | 51.41959 | 10.23113 | 31154 ft | 464 kts | 182° |
| 2026-04-22 09:56 | 51.38754 | 10.22666 | 30404 ft | 464 kts | 182° |
| 2026-04-22 09:56 | 51.35570 | 10.22225 | 29606 ft | 465 kts | 181° |
| 2026-04-22 09:57 | 51.32358 | 10.21907 | 28893 ft | 462 kts | 178° |
| 2026-04-22 09:57 | 51.29172 | 10.21823 | 28324 ft | 456 kts | 177° |
| 2026-04-22 09:57 | 51.26023 | 10.21759 | 27794 ft | 451 kts | 177° |
| 2026-04-22 09:57 | 51.22910 | 10.21698 | 27282 ft | 445 kts | 177° |
| 2026-04-22 09:58 | 51.19863 | 10.21639 | 26792 ft | 439 kts | 177° |
| 2026-04-22 09:58 | 51.16820 | 10.21580 | 26307 ft | 433 kts | 177° |
| 2026-04-22 09:58 | 51.13860 | 10.21521 | 25843 ft | 428 kts | 177° |
| 2026-04-22 09:58 | 51.10883 | 10.21463 | 25362 ft | 423 kts | 177° |
| 2026-04-22 09:59 | 51.08002 | 10.21411 | 24895 ft | 418 kts | 177° |
| 2026-04-22 09:59 | 51.05104 | 10.21360 | 24430 ft | 413 kts | 177° |
| 2026-04-22 09:59 | 51.02248 | 10.21309 | 23963 ft | 409 kts | 177° |
| 2026-04-22 09:59 | 50.99421 | 10.21259 | 23507 ft | 405 kts | 177° |
| 2026-04-22 10:00 | 50.96620 | 10.21210 | 23055 ft | 401 kts | 176° |
| 2026-04-22 10:00 | 50.93870 | 10.21162 | 22599 ft | 397 kts | 176° |
| 2026-04-22 10:00 | 50.91140 | 10.21115 | 22147 ft | 394 kts | 177° |
| 2026-04-22 10:00 | 50.88410 | 10.21068 | 21699 ft | 391 kts | 177° |
| 2026-04-22 10:01 | 50.85663 | 10.21015 | 21245 ft | 388 kts | 177° |
| 2026-04-22 10:01 | 50.82995 | 10.20890 | 20780 ft | 387 kts | 183° |
| 2026-04-22 10:01 | 50.80440 | 10.19630 | 20300 ft | 390 kts | 208° |
| 2026-04-22 10:01 | 50.78402 | 10.16865 | 19854 ft | 388 kts | 233° |
| 2026-04-22 10:02 | 50.77070 | 10.13202 | 19438 ft | 383 kts | 245° |
| 2026-04-22 10:02 | 50.75935 | 10.09446 | 19004 ft | 380 kts | 246° |
| 2026-04-22 10:02 | 50.74807 | 10.05705 | 18566 ft | 378 kts | 245° |
| 2026-04-22 10:02 | 50.73653 | 10.01959 | 18128 ft | 376 kts | 245° |
| 2026-04-22 10:03 | 50.72505 | 9.98301 | 17703 ft | 374 kts | 245° |
| 2026-04-22 10:03 | 50.71350 | 9.94666 | 17274 ft | 372 kts | 244° |
| 2026-04-22 10:03 | 50.70184 | 9.91019 | 16846 ft | 370 kts | 244° |
| 2026-04-22 10:03 | 50.69033 | 9.87435 | 16426 ft | 368 kts | 244° |
| 2026-04-22 10:04 | 50.67874 | 9.83833 | 16000 ft | 367 kts | 244° |
| 2026-04-22 10:04 | 50.66729 | 9.80283 | 15579 ft | 365 kts | 244° |
| 2026-04-22 10:04 | 50.65590 | 9.76755 | 15165 ft | 363 kts | 244° |
| 2026-04-22 10:04 | 50.64440 | 9.73203 | 14741 ft | 361 kts | 244° |
| 2026-04-22 10:05 | 50.63274 | 9.69772 | 14312 ft | 360 kts | 237° |
| 2026-04-22 10:05 | 50.61552 | 9.66929 | 13862 ft | 356 kts | 214° |
| 2026-04-22 10:05 | 50.59362 | 9.65193 | 13448 ft | 350 kts | 199° |
| 2026-04-22 10:05 | 50.57092 | 9.63867 | 13034 ft | 347 kts | 197° |
| 2026-04-22 10:06 | 50.54848 | 9.62583 | 12620 ft | 345 kts | 198° |
| 2026-04-22 10:06 | 50.52594 | 9.61260 | 12201 ft | 343 kts | 198° |
| 2026-04-22 10:06 | 50.50389 | 9.59936 | 11791 ft | 341 kts | 199° |
| 2026-04-22 10:06 | 50.48288 | 9.58230 | 11366 ft | 342 kts | 218° |
| 2026-04-22 10:07 | 50.46862 | 9.55279 | 11297 ft | 343 kts | 246° |
| 2026-04-22 10:07 | 50.46130 | 9.51713 | 11300 ft | 344 kts | 256° |
| 2026-04-22 10:07 | 50.45512 | 9.48119 | 11299 ft | 344 kts | 256° |
| 2026-04-22 10:07 | 50.44879 | 9.44498 | 11299 ft | 344 kts | 256° |
| 2026-04-22 10:08 | 50.44228 | 9.40907 | 11299 ft | 344 kts | 255° |
| 2026-04-22 10:08 | 50.43556 | 9.37304 | 11299 ft | 344 kts | 255° |
| 2026-04-22 10:08 | 50.42868 | 9.33675 | 11295 ft | 345 kts | 253° |
| 2026-04-22 10:08 | 50.42191 | 9.30122 | 11295 ft | 345 kts | 254° |
| 2026-04-22 10:09 | 50.41425 | 9.26565 | 11286 ft | 345 kts | 247° |
| 2026-04-22 10:09 | 50.40379 | 9.23158 | 11282 ft | 345 kts | 242° |
| 2026-04-22 10:09 | 50.39263 | 9.19848 | 11277 ft | 341 kts | 242° |
| 2026-04-22 10:09 | 50.38185 | 9.16667 | 11273 ft | 324 kts | 242° |
| 2026-04-22 10:10 | 50.37358 | 9.14203 | 11277 ft | 315 kts | 242° |
| 2026-04-22 10:10 | 50.36590 | 9.11890 | 11279 ft | 314 kts | 242° |